Enosburg Falls, Vermont
Current Conditions -  °F | °C
As of 1:35 AM on Friday 31 Oct 2014 (Local Time) from KFSO Reporting Station
Overcast Overcast  
Wind Chill: 40°   Ceiling: 5000
Heat Index: 40°   Visibility: 10mi
Dew Point: 31°   Wind: 0mph
Humidity: 69%   Direction: NA
Pressure: 30.01"   Gusts: NA
Location:  44.91°N, 72.81°W
Report Text: KFSO 310535Z AUTO 00000KT 10SM OVC050 05/M01 A3001 RMK AO2 T00461006
Loading
Personal Weather Stations






























Interactive Weather Map
Tropical Storm Tracking
New forecast layout! Learn more

10-Day Weather Forecast

Advertisements
Track Severe Weather on mobile